Lyon-Saint-Exupéry


Bulletin



L'aéroport de Lyon-Saint-Exupéry (France) a édité ce bulletin météorologique il y a 31 minutes, à 16:00 Europe/Paris (14H00 UTC)
La température est de 12 °C, avec un point de rosée à 0 °C.
L'humidite relative est de 43.61 %.
La pression au niveau de la mer est de 1008 hPa.
Le vent souffle à une vitesse de 24 km/h du NNO (350°).


Message METAR

LFLL 191400Z 35013KT CAVOK 12/00 Q1008 NOSIG
Récupérer le message au format XML
Récupérer le message au format JSON


Observations sur 24h




Date (Locale) Temp. (°C) Point rosée (°C) Pression (hPa) Direction vent Vitesse (km/h)
16:00 19/04/2014 12 0 1008 NNO 24
15:00 19/04/2014 12 0 1007 NNO 26
14:00 19/04/2014 11 1 1007 N 22
13:00 19/04/2014 11 0 1008 NNO 24
12:00 19/04/2014 10 -1 1008 NNO 24
11:00 19/04/2014 9 0 1008 N 26
10:00 19/04/2014 7 0 1008 NNO 22
09:00 19/04/2014 6 0 1008 NNO 19
08:00 19/04/2014 4 1 1009 NO 19
07:00 19/04/2014 3 0 1008 NO 9
06:30 19/04/2014 3 0 1008 N 6
05:00 19/04/2014 5 1 1008 NNO 13
04:30 19/04/2014 5 1 1008 NNO 13
03:00 19/04/2014 6 1 1009 NNO 13
02:00 19/04/2014 7 2 1010 N 15
01:00 19/04/2014 8 1 1010 N 19
00:00 19/04/2014 10 4 1011 N 22
23:00 18/04/2014 10 5 1011 NNO 22
22:00 18/04/2014 10 5 1011 NNO 19
21:00 18/04/2014 10 6 1011 NNO 19
20:00 18/04/2014 10 6 1011 NNO 17
19:00 18/04/2014 10 7 1012 NNO 28
17:00 18/04/2014 15 3 1011 NNO 11
Les données de cette page proviennent des messages METAR de la NOAA